createdAt,value
2023-09-29T00:02:13.669Z,8.30
2023-09-29T00:04:45.713Z,8.00
2023-09-29T00:07:18.254Z,8.10
2023-09-29T00:09:47.858Z,8.00
2023-09-29T00:12:16.734Z,8.60
2023-09-29T00:14:45.765Z,8.10
2023-09-29T00:17:15.493Z,7.70
2023-09-29T00:19:47.034Z,7.50
2023-09-29T00:22:18.137Z,7.90
2023-09-29T00:24:51.902Z,8.00
2023-09-29T00:27:20.529Z,8.20
2023-09-29T00:29:49.801Z,7.70
2023-09-29T00:32:19.559Z,7.80
2023-09-29T00:35:00.163Z,7.50
2023-09-29T00:40:17.342Z,7.80
2023-09-29T00:42:46.547Z,7.80
2023-09-29T00:45:43.049Z,7.40
2023-09-29T00:48:12.150Z,7.50
2023-09-29T00:50:43.789Z,8.20
2023-09-29T00:53:15.933Z,8.10
2023-09-29T00:55:49.667Z,7.90
2023-09-29T00:58:20.711Z,7.50
2023-09-29T01:00:53.855Z,7.50
2023-09-29T01:03:23.421Z,7.50
2023-09-29T01:05:57.198Z,7.20
2023-09-29T01:08:27.998Z,7.70
2023-09-29T01:11:07.120Z,8.00
2023-09-29T01:13:42.939Z,7.40
2023-09-29T01:16:12.195Z,7.30
2023-09-29T01:18:41.738Z,6.80
2023-09-29T01:21:15.160Z,7.40
2023-09-29T01:23:49.781Z,7.50
2023-09-29T01:26:20.023Z,7.10
2023-09-29T01:31:23.007Z,7.10
2023-09-29T01:34:01.015Z,7.30
2023-09-29T01:36:30.852Z,7.70
2023-09-29T01:39:18.588Z,7.90
2023-09-29T01:41:54.432Z,7.30
2023-09-29T01:44:35.598Z,6.90
2023-09-29T01:47:06.624Z,7.50
2023-09-29T01:49:44.996Z,7.00
2023-09-29T01:54:47.292Z,7.50
2023-09-29T01:57:20.019Z,7.80
2023-09-29T01:59:50.692Z,7.50
2023-09-29T02:02:22.057Z,7.00
2023-09-29T02:04:54.327Z,7.20
2023-09-29T02:07:26.301Z,7.20
2023-09-29T02:10:05.101Z,7.10
2023-09-29T02:12:40.572Z,7.00
2023-09-29T02:15:11.487Z,7.30
2023-09-29T02:17:43.570Z,6.60
2023-09-29T02:20:33.984Z,7.50
2023-09-29T02:23:09.748Z,6.50
2023-09-29T02:25:42.620Z,6.70
2023-09-29T02:28:34.083Z,6.90
2023-09-29T02:31:07.219Z,6.50
2023-09-29T02:33:45.786Z,7.00
2023-09-29T02:36:18.978Z,7.20
2023-09-29T02:38:49.968Z,7.40
2023-09-29T02:41:22.483Z,7.90
2023-09-29T02:43:53.931Z,7.20
2023-09-29T02:46:27.032Z,7.50
2023-09-29T02:48:56.635Z,6.90
2023-09-29T02:54:44.702Z,7.10
2023-09-29T02:57:15.926Z,7.70
2023-09-29T02:59:47.879Z,7.60
2023-09-29T03:02:15.105Z,8.50
2023-09-29T03:04:45.114Z,7.60
2023-09-29T03:07:16.342Z,8.20
2023-09-29T03:09:43.525Z,8.10
2023-09-29T03:12:17.974Z,7.80
2023-09-29T03:14:47.230Z,7.90
2023-09-29T03:17:38.436Z,8.20
2023-09-29T03:20:12.657Z,7.70
2023-09-29T03:23:00.697Z,7.40
2023-09-29T03:25:29.773Z,8.10
2023-09-29T03:28:03.116Z,8.30
2023-09-29T03:30:45.215Z,8.20
2023-09-29T03:39:12.525Z,7.80
2023-09-29T03:42:05.186Z,7.90
2023-09-29T03:44:35.044Z,7.50
2023-09-29T03:47:28.040Z,9.00
2023-09-29T03:49:58.180Z,8.10
2023-09-29T03:52:27.883Z,7.70
2023-09-29T03:55:16.427Z,8.30
2023-09-29T03:57:50.676Z,8.60
2023-09-29T04:00:21.091Z,7.70
2023-09-29T04:02:53.354Z,8.60
2023-09-29T04:05:21.927Z,8.70
2023-09-29T04:07:53.657Z,8.50
2023-09-29T04:10:45.479Z,7.80
2023-09-29T04:13:15.958Z,8.40
2023-09-29T04:15:53.960Z,8.70
2023-09-29T04:18:56.483Z,8.80
2023-09-29T04:21:24.939Z,9.00
2023-09-29T04:23:52.835Z,8.60
2023-09-29T04:26:25.959Z,8.20
2023-09-29T04:29:22.760Z,8.70
2023-09-29T04:31:51.951Z,8.30
2023-09-29T04:39:22.672Z,7.60
2023-09-29T04:41:50.488Z,7.80
2023-09-29T04:44:17.747Z,8.50
2023-09-29T04:47:06.139Z,9.30
2023-09-29T04:49:34.966Z,8.80
2023-09-29T04:54:30.128Z,8.30
2023-09-29T04:57:01.880Z,8.50
2023-09-29T04:59:31.603Z,8.30
2023-09-29T05:02:02.479Z,8.80
2023-09-29T05:04:33.760Z,8.80
2023-09-29T05:07:10.705Z,9.10
2023-09-29T05:09:40.255Z,8.80
2023-09-29T05:12:12.522Z,8.20
2023-09-29T05:14:40.252Z,9.90
2023-09-29T05:17:07.912Z,10.40
2023-09-29T05:19:39.945Z,10.70
2023-09-29T05:22:12.425Z,9.80
2023-09-29T05:24:40.859Z,9.60
2023-09-29T05:27:14.995Z,9.60
2023-09-29T05:29:42.974Z,9.00
2023-09-29T05:32:12.512Z,8.50
2023-09-29T05:34:41.822Z,8.80
2023-09-29T05:37:12.221Z,9.50
2023-09-29T05:39:42.417Z,9.00
2023-09-29T05:42:14.922Z,8.50
2023-09-29T05:44:46.608Z,8.40
2023-09-29T05:47:14.069Z,9.40
2023-09-29T05:53:10.362Z,9.80
2023-09-29T05:55:50.353Z,9.60
2023-09-29T05:58:19.368Z,9.50
2023-09-29T06:00:46.931Z,9.30
2023-09-29T06:03:40.046Z,8.70
2023-09-29T06:06:11.300Z,8.60
2023-09-29T06:08:55.347Z,9.40
2023-09-29T06:11:57.988Z,8.80
2023-09-29T06:14:30.195Z,8.90
2023-09-29T06:17:00.360Z,9.70
2023-09-29T06:19:34.823Z,8.60
2023-09-29T06:22:02.537Z,8.90
2023-09-29T06:24:32.550Z,8.90
2023-09-29T06:27:00.624Z,9.50
2023-09-29T06:29:30.051Z,9.50
2023-09-29T06:31:59.871Z,8.90
2023-09-29T06:34:31.212Z,9.30
2023-09-29T06:37:00.187Z,9.00
2023-09-29T06:39:27.956Z,9.40
2023-09-29T06:41:55.212Z,9.00
2023-09-29T06:44:23.105Z,9.60
2023-09-29T06:46:50.363Z,9.90
2023-09-29T06:49:18.006Z,9.40
2023-09-29T06:51:45.714Z,9.40
2023-09-29T06:54:13.136Z,9.20
2023-09-29T06:56:40.670Z,9.60
2023-09-29T06:59:10.040Z,9.70
2023-09-29T07:01:37.960Z,9.60
2023-09-29T07:04:08.667Z,9.00
2023-09-29T07:06:38.148Z,8.70
2023-09-29T07:09:05.618Z,9.00
2023-09-29T07:11:32.954Z,9.00
2023-09-29T07:14:00.182Z,9.00
2023-09-29T07:16:27.424Z,9.10
2023-09-29T07:18:55.143Z,9.20
2023-09-29T07:21:22.628Z,8.70
2023-09-29T07:23:50.976Z,9.00
2023-09-29T07:26:18.187Z,9.40
2023-09-29T07:28:45.446Z,9.10
2023-09-29T07:31:12.889Z,9.20
2023-09-29T07:33:40.283Z,9.10
2023-09-29T07:36:07.648Z,9.20
2023-09-29T07:38:34.957Z,9.40
2023-09-29T07:41:06.397Z,9.80
2023-09-29T07:43:33.714Z,8.90
2023-09-29T07:46:00.987Z,9.50
2023-09-29T07:48:29.601Z,9.10
2023-09-29T07:50:56.995Z,9.70
2023-09-29T07:53:24.228Z,9.50
2023-09-29T07:55:53.744Z,8.90
2023-09-29T07:58:20.944Z,9.30
2023-09-29T08:00:48.170Z,8.60
2023-09-29T08:03:15.643Z,8.80
2023-09-29T08:05:42.946Z,9.20
2023-09-29T08:08:10.167Z,9.80
2023-09-29T08:10:37.435Z,9.70
2023-09-29T08:13:04.994Z,9.30
2023-09-29T08:15:32.210Z,9.30
2023-09-29T08:17:59.690Z,9.20
2023-09-29T08:20:27.007Z,9.90
2023-09-29T08:22:54.168Z,9.30
2023-09-29T08:25:21.648Z,9.80
2023-09-29T08:27:49.039Z,9.50
2023-09-29T08:30:16.548Z,9.30
2023-09-29T08:32:45.402Z,9.20
2023-09-29T08:35:16.807Z,9.10
2023-09-29T08:37:44.567Z,9.30
2023-09-29T08:40:13.861Z,9.70
2023-09-29T08:42:42.966Z,10.50
2023-09-29T08:45:11.578Z,9.60
2023-09-29T08:47:39.786Z,9.30
2023-09-29T08:50:08.486Z,10.20
2023-09-29T08:52:35.818Z,9.10
2023-09-29T08:55:06.200Z,9.20
2023-09-29T08:57:33.468Z,9.20
2023-09-29T09:00:01.988Z,8.90
2023-09-29T09:02:29.535Z,9.00
2023-09-29T09:04:58.530Z,8.90
2023-09-29T09:07:25.932Z,9.10
2023-09-29T09:09:56.799Z,9.10
2023-09-29T09:12:36.978Z,8.60
2023-09-29T09:15:05.998Z,8.20
2023-09-29T09:17:35.857Z,8.30
2023-09-29T09:20:03.248Z,8.10
2023-09-29T09:22:45.901Z,8.10
2023-09-29T09:25:16.706Z,7.90
2023-09-29T09:27:45.411Z,8.30
2023-09-29T09:30:24.865Z,7.60
2023-09-29T09:32:52.929Z,7.30
2023-09-29T09:35:27.571Z,8.30
2023-09-29T09:37:55.772Z,8.00
2023-09-29T09:40:25.955Z,9.80
2023-09-29T09:42:56.984Z,7.60
2023-09-29T09:45:26.643Z,8.70
2023-09-29T09:48:03.260Z,8.00
2023-09-29T09:50:32.258Z,7.80
2023-09-29T09:52:59.723Z,7.50
2023-09-29T09:55:43.709Z,7.70
2023-09-29T09:58:14.452Z,7.80
2023-09-29T10:00:43.320Z,7.80
2023-09-29T10:03:13.608Z,8.20
2023-09-29T10:05:43.115Z,7.70
2023-09-29T10:08:12.325Z,8.00
2023-09-29T10:10:40.630Z,7.90
2023-09-29T10:13:16.852Z,8.00
2023-09-29T10:15:44.998Z,8.10
2023-09-29T10:18:19.768Z,7.60
2023-09-29T10:21:02.989Z,7.50
2023-09-29T10:23:30.420Z,7.50
2023-09-29T10:26:01.909Z,7.70
2023-09-29T10:28:32.979Z,7.30
2023-09-29T10:31:15.394Z,6.90
2023-09-29T10:33:55.500Z,7.00
2023-09-29T10:36:25.067Z,6.50
2023-09-29T10:38:53.390Z,7.20
2023-09-29T10:41:34.105Z,7.00
2023-09-29T10:44:02.610Z,6.90
2023-09-29T10:46:30.639Z,6.90
2023-09-29T10:48:57.935Z,6.70
2023-09-29T10:51:29.942Z,7.20
2023-09-29T10:54:01.303Z,7.00
2023-09-29T10:56:28.898Z,6.90
2023-09-29T10:58:56.478Z,6.70
2023-09-29T11:01:33.099Z,6.90
2023-09-29T11:04:02.538Z,6.60
2023-09-29T11:06:29.967Z,7.00
2023-09-29T11:09:00.070Z,6.30
2023-09-29T11:11:28.269Z,6.90
2023-09-29T11:13:59.366Z,7.00
2023-09-29T11:16:28.874Z,6.50
2023-09-29T11:18:58.993Z,7.10
2023-09-29T11:21:36.179Z,6.70
2023-09-29T11:24:10.480Z,6.20
2023-09-29T11:26:44.916Z,6.70
2023-09-29T11:29:25.996Z,6.30
2023-09-29T11:31:55.113Z,6.10
2023-09-29T11:34:23.038Z,6.00
2023-09-29T11:36:50.668Z,6.40
2023-09-29T11:39:21.094Z,6.50
2023-09-29T11:41:48.512Z,6.30
2023-09-29T11:44:18.889Z,6.30
2023-09-29T11:46:46.433Z,6.40
2023-09-29T11:49:15.450Z,6.70
2023-09-29T11:51:42.684Z,6.10
2023-09-29T11:54:09.970Z,6.20
2023-09-29T11:56:37.186Z,6.30
2023-09-29T11:59:04.659Z,6.10
2023-09-29T12:01:32.203Z,6.10
2023-09-29T12:03:59.893Z,5.80
2023-09-29T12:06:28.717Z,6.20
2023-09-29T12:08:57.044Z,6.00
2023-09-29T12:11:24.300Z,5.60
2023-09-29T12:13:51.525Z,5.90
2023-09-29T12:16:19.006Z,6.00
2023-09-29T12:18:46.769Z,5.70
2023-09-29T12:21:14.231Z,5.90
2023-09-29T12:23:42.075Z,5.50
2023-09-29T12:26:10.415Z,5.40
2023-09-29T12:28:38.166Z,5.20
2023-09-29T12:31:20.228Z,5.70
2023-09-29T12:33:47.572Z,5.70
2023-09-29T12:36:16.171Z,5.60
2023-09-29T12:38:45.983Z,5.40
2023-09-29T12:41:14.905Z,5.80
2023-09-29T12:43:42.973Z,5.30
2023-09-29T12:46:10.146Z,5.10
2023-09-29T12:48:37.470Z,4.70
2023-09-29T12:51:04.704Z,4.80
2023-09-29T12:53:32.258Z,4.80
2023-09-29T12:55:59.657Z,4.60
2023-09-29T12:58:26.894Z,5.60
2023-09-29T13:00:55.874Z,4.90
2023-09-29T13:03:23.132Z,4.90
2023-09-29T13:05:50.507Z,5.50
2023-09-29T13:08:17.730Z,5.10
2023-09-29T13:10:47.894Z,5.70
2023-09-29T13:13:15.109Z,4.90
2023-09-29T13:15:43.070Z,4.90
2023-09-29T13:18:10.389Z,5.60
2023-09-29T13:20:40.029Z,5.10
2023-09-29T13:23:08.411Z,5.30
2023-09-29T13:25:35.575Z,5.00
2023-09-29T13:28:03.905Z,5.50
2023-09-29T13:30:43.466Z,5.40
2023-09-29T13:33:20.138Z,5.20
2023-09-29T13:35:47.468Z,5.40
2023-09-29T13:38:14.952Z,5.30
2023-09-29T13:40:42.662Z,5.00
2023-09-29T13:43:10.904Z,4.80
2023-09-29T13:45:38.213Z,4.70
2023-09-29T13:48:05.812Z,5.30
2023-09-29T13:50:33.166Z,5.20
2023-09-29T13:53:00.325Z,5.30
2023-09-29T13:55:27.441Z,5.30
2023-09-29T13:57:54.609Z,4.90
2023-09-29T14:00:23.547Z,5.20
2023-09-29T14:02:51.558Z,5.60
2023-09-29T14:05:19.000Z,5.30
2023-09-29T14:07:46.144Z,5.10
2023-09-29T14:10:13.347Z,5.20
2023-09-29T14:12:40.796Z,5.20
2023-09-29T14:15:10.283Z,5.40
2023-09-29T14:17:37.562Z,5.10
2023-09-29T14:20:07.420Z,5.00
2023-09-29T14:22:34.510Z,4.90
2023-09-29T14:25:02.585Z,5.00
2023-09-29T14:27:29.766Z,4.90
2023-09-29T14:29:57.086Z,5.20
2023-09-29T14:32:27.295Z,5.80
2023-09-29T14:34:55.452Z,4.80
2023-09-29T14:37:22.685Z,5.90
2023-09-29T14:39:49.872Z,4.80
2023-09-29T14:42:17.076Z,4.50
2023-09-29T14:44:44.203Z,5.40
2023-09-29T14:47:13.620Z,5.20
2023-09-29T14:49:40.992Z,4.90
2023-09-29T14:52:08.359Z,4.80
2023-09-29T14:54:35.508Z,5.10
2023-09-29T14:57:03.038Z,4.70
2023-09-29T14:59:32.941Z,4.70
2023-09-29T15:02:00.149Z,4.70
2023-09-29T15:04:36.038Z,5.10
2023-09-29T15:07:17.001Z,5.20
2023-09-29T15:09:44.840Z,4.70
2023-09-29T15:12:12.278Z,5.50
2023-09-29T15:14:39.475Z,5.60
2023-09-29T15:17:07.040Z,5.80
2023-09-29T15:19:44.298Z,5.10
2023-09-29T15:22:11.818Z,5.80
2023-09-29T15:24:39.264Z,5.50
2023-09-29T15:27:07.818Z,5.30
2023-09-29T15:29:36.013Z,5.30
2023-09-29T15:32:03.146Z,5.60
2023-09-29T15:34:31.579Z,5.70
2023-09-29T15:36:58.874Z,5.80
2023-09-29T15:39:26.620Z,5.40
2023-09-29T15:41:54.085Z,5.90
2023-09-29T15:44:21.262Z,5.80
2023-09-29T15:46:48.473Z,7.70
2023-09-29T15:49:15.693Z,7.60
2023-09-29T15:51:42.922Z,8.40
2023-09-29T15:54:10.294Z,9.00
2023-09-29T15:56:37.566Z,8.50
2023-09-29T15:59:05.023Z,8.00
2023-09-29T16:01:33.918Z,7.80
2023-09-29T16:06:30.839Z,7.50
2023-09-29T16:08:58.074Z,8.20
2023-09-29T16:11:26.382Z,7.60
2023-09-29T16:13:53.653Z,7.80
2023-09-29T16:16:20.957Z,7.50
2023-09-29T16:18:48.230Z,7.60
2023-09-29T16:21:19.884Z,7.90
2023-09-29T16:23:48.029Z,7.30
2023-09-29T16:26:17.471Z,7.50
2023-09-29T16:28:45.422Z,7.30
2023-09-29T16:31:14.127Z,6.90
2023-09-29T16:33:42.263Z,7.80
2023-09-29T16:36:09.575Z,7.70
2023-09-29T16:41:05.562Z,8.00
2023-09-29T16:43:32.825Z,8.20
2023-09-29T16:46:00.077Z,13.30
2023-09-29T16:48:27.801Z,14.20
2023-09-29T16:50:56.203Z,19.30
2023-09-29T16:53:28.983Z,24.10
2023-09-29T16:55:57.064Z,25.70
2023-09-29T16:58:24.205Z,29.30
2023-09-29T17:00:52.434Z,27.40
2023-09-29T17:03:20.157Z,25.80
2023-09-29T17:05:47.451Z,22.40
2023-09-29T17:08:14.670Z,22.20
2023-09-29T17:10:42.866Z,21.60
2023-09-29T17:13:09.968Z,20.70
2023-09-29T17:15:40.806Z,21.00
2023-09-29T17:18:08.454Z,21.00
2023-09-29T17:20:39.010Z,21.00
2023-09-29T17:23:06.450Z,20.00
2023-09-29T17:25:33.561Z,15.60
2023-09-29T17:28:01.387Z,16.80
2023-09-29T17:30:28.673Z,26.10
2023-09-29T17:32:56.127Z,34.50
2023-09-29T17:35:23.347Z,31.30
2023-09-29T17:37:50.533Z,27.80
2023-09-29T17:40:19.884Z,24.10
2023-09-29T17:42:47.733Z,25.60
2023-09-29T17:45:15.201Z,26.10
2023-09-29T17:47:42.515Z,24.10
2023-09-29T17:50:10.740Z,23.00
2023-09-29T17:52:38.895Z,20.40
2023-09-29T17:55:07.710Z,22.40
2023-09-29T17:57:35.158Z,20.50
2023-09-29T18:00:05.052Z,20.90
2023-09-29T18:02:35.017Z,20.70
2023-09-29T18:05:02.173Z,19.70
2023-09-29T18:07:29.368Z,21.20
2023-09-29T18:09:56.588Z,20.50
2023-09-29T18:12:23.831Z,19.60
2023-09-29T18:14:52.733Z,20.10
2023-09-29T18:17:20.015Z,17.90
2023-09-29T18:19:47.613Z,16.90
2023-09-29T18:22:14.783Z,16.30
2023-09-29T18:24:43.354Z,16.50
2023-09-29T18:27:10.632Z,17.00
2023-09-29T18:29:37.790Z,16.50
2023-09-29T18:32:05.519Z,16.00
2023-09-29T18:34:32.693Z,17.20
2023-09-29T18:36:59.910Z,16.10
2023-09-29T18:39:27.877Z,17.40
2023-09-29T18:41:55.052Z,17.30
2023-09-29T18:44:22.585Z,17.80
2023-09-29T18:46:49.873Z,17.30
2023-09-29T18:49:17.700Z,17.30
2023-09-29T18:51:44.923Z,16.60
2023-09-29T18:54:12.193Z,16.00
2023-09-29T18:56:42.435Z,14.70
2023-09-29T18:59:10.449Z,12.90
2023-09-29T19:01:38.039Z,13.60
2023-09-29T19:04:05.900Z,13.10
2023-09-29T19:06:33.100Z,13.60
2023-09-29T19:09:00.751Z,12.50
2023-09-29T19:11:28.206Z,12.60
2023-09-29T19:13:56.025Z,13.90
2023-09-29T19:16:23.368Z,12.10
2023-09-29T19:18:52.739Z,12.20
2023-09-29T19:21:24.342Z,12.60
2023-09-29T19:23:55.860Z,13.10
2023-09-29T19:26:25.881Z,13.20
2023-09-29T19:28:53.879Z,12.10
2023-09-29T19:31:27.149Z,13.00
2023-09-29T19:33:59.161Z,11.30
2023-09-29T19:36:29.583Z,11.40
2023-09-29T19:38:57.371Z,10.00
2023-09-29T19:41:25.072Z,9.60
2023-09-29T19:43:52.646Z,9.30
2023-09-29T19:46:23.495Z,9.90
2023-09-29T19:48:52.830Z,10.30
2023-09-29T19:53:47.493Z,10.30
2023-09-29T19:56:21.266Z,10.20
2023-09-29T19:58:49.239Z,9.50
2023-09-29T20:01:18.283Z,9.80
2023-09-29T20:03:46.349Z,9.50
2023-09-29T20:06:13.667Z,9.20
2023-09-29T20:08:43.688Z,9.60
2023-09-29T20:11:12.025Z,9.60
2023-09-29T20:13:39.464Z,9.80
2023-09-29T20:16:07.193Z,10.00
2023-09-29T20:18:34.604Z,9.80
2023-09-29T20:21:03.669Z,9.80
2023-09-29T20:23:31.045Z,9.80
2023-09-29T20:25:59.757Z,9.90
2023-09-29T20:28:27.742Z,10.00
2023-09-29T20:30:55.262Z,9.70
2023-09-29T20:33:25.321Z,10.90
2023-09-29T20:35:52.526Z,9.20
2023-09-29T20:38:19.930Z,9.60
2023-09-29T20:40:48.373Z,10.20
2023-09-29T20:43:15.719Z,10.60
2023-09-29T20:45:49.426Z,10.40
2023-09-29T20:48:17.442Z,10.00
2023-09-29T20:50:45.137Z,10.60
2023-09-29T20:53:17.000Z,9.40
2023-09-29T20:55:44.468Z,9.50
2023-09-29T20:58:12.107Z,10.00
2023-09-29T21:00:40.974Z,9.60
2023-09-29T21:03:10.469Z,9.80
2023-09-29T21:05:37.646Z,9.20
2023-09-29T21:08:05.290Z,9.20
2023-09-29T21:10:32.493Z,10.00
2023-09-29T21:13:01.422Z,9.70
2023-09-29T21:15:28.774Z,8.80
2023-09-29T21:17:58.785Z,9.40
2023-09-29T21:20:26.047Z,10.10
2023-09-29T21:22:54.262Z,11.00
2023-09-29T21:25:22.878Z,24.80
2023-09-29T21:27:50.469Z,30.40
2023-09-29T21:30:17.986Z,28.20
2023-09-29T21:32:45.270Z,20.30
2023-09-29T21:35:13.444Z,19.20
2023-09-29T21:37:40.708Z,19.60
2023-09-29T21:40:08.818Z,16.90
2023-09-29T21:42:36.028Z,17.30
2023-09-29T21:45:04.143Z,15.80
2023-09-29T21:47:31.456Z,14.20
2023-09-29T21:49:58.732Z,12.80
2023-09-29T21:52:25.960Z,13.00
2023-09-29T21:54:53.143Z,12.90
2023-09-29T21:57:20.494Z,12.20
2023-09-29T21:59:48.015Z,11.90
2023-09-29T22:02:15.701Z,10.90
2023-09-29T22:04:42.999Z,11.00
2023-09-29T22:07:10.240Z,10.20
2023-09-29T22:09:37.455Z,10.50
2023-09-29T22:12:05.409Z,9.60
2023-09-29T22:14:32.720Z,9.30
2023-09-29T22:17:00.910Z,9.90
2023-09-29T22:19:28.138Z,10.10
2023-09-29T22:21:55.404Z,9.50
2023-09-29T22:24:23.152Z,9.90
2023-09-29T22:26:51.829Z,9.70
2023-09-29T22:29:19.151Z,9.80
2023-09-29T22:31:49.265Z,10.10
2023-09-29T22:34:17.661Z,9.90
2023-09-29T22:36:48.043Z,10.10
2023-09-29T22:39:15.706Z,9.80
2023-09-29T22:41:43.260Z,9.20
2023-09-29T22:44:10.412Z,9.60
2023-09-29T22:46:37.603Z,9.40
2023-09-29T22:49:04.992Z,10.30
2023-09-29T22:51:32.215Z,9.40
2023-09-29T22:53:59.464Z,9.80
2023-09-29T22:56:26.725Z,9.40
2023-09-29T22:58:54.312Z,8.60
2023-09-29T23:01:21.528Z,9.30
2023-09-29T23:03:49.846Z,9.00
2023-09-29T23:06:17.777Z,10.00
2023-09-29T23:08:46.727Z,11.10
2023-09-29T23:11:13.936Z,9.90
2023-09-29T23:13:42.966Z,9.90
2023-09-29T23:16:10.733Z,10.10
2023-09-29T23:18:37.968Z,9.70
2023-09-29T23:21:06.055Z,9.50
2023-09-29T23:23:33.341Z,10.10
2023-09-29T23:26:00.485Z,9.60
2023-09-29T23:28:27.867Z,10.00
2023-09-29T23:30:59.631Z,9.90
2023-09-29T23:33:30.691Z,9.90
2023-09-29T23:35:57.959Z,10.00
2023-09-29T23:38:25.301Z,10.80
2023-09-29T23:40:52.482Z,9.30
2023-09-29T23:43:19.681Z,10.10
2023-09-29T23:45:48.447Z,9.70
2023-09-29T23:48:17.147Z,9.50
2023-09-29T23:50:44.383Z,8.90
2023-09-29T23:53:11.716Z,9.40
2023-09-29T23:55:38.897Z,9.60
2023-09-29T23:58:06.107Z,10.10
